sensor_id;sensor_type;location;lat;lon;timestamp;temperature;humidity
25504;DHT22;13410;52.114;5.718;2022-12-24T00:00:13;13.80;99.90
25504;DHT22;13410;52.114;5.718;2022-12-24T00:02:38;13.80;99.90
25504;DHT22;13410;52.114;5.718;2022-12-24T00:05:04;13.80;99.90
25504;DHT22;13410;52.114;5.718;2022-12-24T00:07:30;13.90;99.90
25504;DHT22;13410;52.114;5.718;2022-12-24T00:09:56;13.80;99.90
25504;DHT22;13410;52.114;5.718;2022-12-24T00:12:21;13.80;99.90
25504;DHT22;13410;52.114;5.718;2022-12-24T00:14:47;13.70;99.90
25504;DHT22;13410;52.114;5.718;2022-12-24T00:17:12;13.70;99.90
25504;DHT22;13410;52.114;5.718;2022-12-24T00:19:38;13.80;99.90
25504;DHT22;13410;52.114;5.718;2022-12-24T00:22:04;13.80;99.90
25504;DHT22;13410;52.114;5.718;2022-12-24T00:24:30;13.70;99.90
25504;DHT22;13410;52.114;5.718;2022-12-24T00:26:56;13.70;99.90
25504;DHT22;13410;52.114;5.718;2022-12-24T00:29:22;13.60;99.90
25504;DHT22;13410;52.114;5.718;2022-12-24T00:31:47;13.60;99.90
25504;DHT22;13410;52.114;5.718;2022-12-24T00:34:13;13.80;99.90
25504;DHT22;13410;52.114;5.718;2022-12-24T00:36:38;13.80;99.90
25504;DHT22;13410;52.114;5.718;2022-12-24T00:39:04;13.90;99.90
25504;DHT22;13410;52.114;5.718;2022-12-24T00:41:29;13.90;99.90
25504;DHT22;13410;52.114;5.718;2022-12-24T00:44:01;13.80;99.90
25504;DHT22;13410;52.114;5.718;2022-12-24T00:46:28;13.80;99.90
25504;DHT22;13410;52.114;5.718;2022-12-24T00:48:54;13.80;99.90
25504;DHT22;13410;52.114;5.718;2022-12-24T00:51:21;13.70;99.90
25504;DHT22;13410;52.114;5.718;2022-12-24T00:53:47;13.60;99.90
25504;DHT22;13410;52.114;5.718;2022-12-24T00:56:12;13.50;99.90
25504;DHT22;13410;52.114;5.718;2022-12-24T00:58:38;13.60;99.90
25504;DHT22;13410;52.114;5.718;2022-12-24T01:01:03;13.70;99.90
25504;DHT22;13410;52.114;5.718;2022-12-24T01:03:29;13.80;99.90
25504;DHT22;13410;52.114;5.718;2022-12-24T01:06:10;13.80;99.90
25504;DHT22;13410;52.114;5.718;2022-12-24T01:08:36;13.80;99.90
25504;DHT22;13410;52.114;5.718;2022-12-24T01:11:03;13.90;99.90
25504;DHT22;13410;52.114;5.718;2022-12-24T01:13:29;13.80;99.90
25504;DHT22;13410;52.114;5.718;2022-12-24T01:15:54;13.90;99.90
25504;DHT22;13410;52.114;5.718;2022-12-24T01:18:20;14.10;99.90
25504;DHT22;13410;52.114;5.718;2022-12-24T01:20:57;14.10;99.90
25504;DHT22;13410;52.114;5.718;2022-12-24T01:23:24;14.20;99.90
25504;DHT22;13410;52.114;5.718;2022-12-24T01:25:50;14.20;99.90
25504;DHT22;13410;52.114;5.718;2022-12-24T01:28:15;14.10;99.90
25504;DHT22;13410;52.114;5.718;2022-12-24T01:30:41;14.10;99.90
25504;DHT22;13410;52.114;5.718;2022-12-24T01:33:07;14.00;99.90
25504;DHT22;13410;52.114;5.718;2022-12-24T01:35:32;13.90;99.90
25504;DHT22;13410;52.114;5.718;2022-12-24T01:37:58;14.00;99.90
25504;DHT22;13410;52.114;5.718;2022-12-24T01:40:25;13.90;99.90
25504;DHT22;13410;52.114;5.718;2022-12-24T01:43:16;13.90;99.90
25504;DHT22;13410;52.114;5.718;2022-12-24T01:45:48;13.80;99.90
25504;DHT22;13410;52.114;5.718;2022-12-24T01:53:37;13.60;99.90
25504;DHT22;13410;52.114;5.718;2022-12-24T01:56:05;13.60;99.90
25504;DHT22;13410;52.114;5.718;2022-12-24T01:58:33;13.70;99.90
25504;DHT22;13410;52.114;5.718;2022-12-24T02:00:59;13.70;99.90
25504;DHT22;13410;52.114;5.718;2022-12-24T02:03:25;13.60;99.90
25504;DHT22;13410;52.114;5.718;2022-12-24T02:05:53;13.70;99.90
25504;DHT22;13410;52.114;5.718;2022-12-24T02:08:20;13.60;99.90
25504;DHT22;13410;52.114;5.718;2022-12-24T02:10:46;13.50;99.90
25504;DHT22;13410;52.114;5.718;2022-12-24T02:13:14;13.40;99.90
25504;DHT22;13410;52.114;5.718;2022-12-24T02:15:56;13.40;99.90
25504;DHT22;13410;52.114;5.718;2022-12-24T02:18:33;13.40;99.90
25504;DHT22;13410;52.114;5.718;2022-12-24T02:30:07;13.00;99.90
25504;DHT22;13410;52.114;5.718;2022-12-24T02:38:32;12.90;99.90
25504;DHT22;13410;52.114;5.718;2022-12-24T02:41:18;12.90;99.90
25504;DHT22;13410;52.114;5.718;2022-12-24T02:43:47;12.80;99.90
25504;DHT22;13410;52.114;5.718;2022-12-24T02:46:23;12.80;99.90
25504;DHT22;13410;52.114;5.718;2022-12-24T02:48:50;12.70;99.90
25504;DHT22;13410;52.114;5.718;2022-12-24T02:51:16;12.80;99.90
25504;DHT22;13410;52.114;5.718;2022-12-24T02:53:46;12.70;99.90
25504;DHT22;13410;52.114;5.718;2022-12-24T02:56:40;12.70;99.90
25504;DHT22;13410;52.114;5.718;2022-12-24T03:02:44;12.60;99.90
25504;DHT22;13410;52.114;5.718;2022-12-24T03:05:25;12.60;99.90
25504;DHT22;13410;52.114;5.718;2022-12-24T03:08:07;12.60;99.90
25504;DHT22;13410;52.114;5.718;2022-12-24T03:13:17;12.80;99.90
25504;DHT22;13410;52.114;5.718;2022-12-24T03:15:45;12.60;99.90
25504;DHT22;13410;52.114;5.718;2022-12-24T03:18:13;12.80;99.90
25504;DHT22;13410;52.114;5.718;2022-12-24T03:20:44;12.70;99.90
25504;DHT22;13410;52.114;5.718;2022-12-24T03:23:10;12.70;99.90
25504;DHT22;13410;52.114;5.718;2022-12-24T03:25:40;12.70;99.90
25504;DHT22;13410;52.114;5.718;2022-12-24T03:28:09;12.80;99.90
25504;DHT22;13410;52.114;5.718;2022-12-24T03:30:39;12.70;99.90
25504;DHT22;13410;52.114;5.718;2022-12-24T03:33:05;12.70;99.90
25504;DHT22;13410;52.114;5.718;2022-12-24T03:35:31;12.70;99.90
25504;DHT22;13410;52.114;5.718;2022-12-24T03:37:56;12.70;99.90
25504;DHT22;13410;52.114;5.718;2022-12-24T03:40:22;12.80;99.90
25504;DHT22;13410;52.114;5.718;2022-12-24T03:42:47;12.60;99.90
25504;DHT22;13410;52.114;5.718;2022-12-24T03:45:13;12.50;99.90
25504;DHT22;13410;52.114;5.718;2022-12-24T03:47:38;12.60;99.90
25504;DHT22;13410;52.114;5.718;2022-12-24T03:50:05;12.70;99.90
25504;DHT22;13410;52.114;5.718;2022-12-24T03:52:31;12.90;99.90
25504;DHT22;13410;52.114;5.718;2022-12-24T03:54:56;12.90;99.90
25504;DHT22;13410;52.114;5.718;2022-12-24T03:57:22;13.00;99.90
25504;DHT22;13410;52.114;5.718;2022-12-24T03:59:47;13.10;99.90
25504;DHT22;13410;52.114;5.718;2022-12-24T04:02:13;13.20;99.90
25504;DHT22;13410;52.114;5.718;2022-12-24T04:04:38;13.30;99.90
25504;DHT22;13410;52.114;5.718;2022-12-24T04:07:05;13.40;99.90
25504;DHT22;13410;52.114;5.718;2022-12-24T04:09:31;13.40;99.90
25504;DHT22;13410;52.114;5.718;2022-12-24T04:11:56;13.60;99.90
25504;DHT22;13410;52.114;5.718;2022-12-24T04:14:22;13.60;99.90
25504;DHT22;13410;52.114;5.718;2022-12-24T04:16:47;13.60;99.90
25504;DHT22;13410;52.114;5.718;2022-12-24T04:19:13;13.70;99.90
25504;DHT22;13410;52.114;5.718;2022-12-24T04:21:38;13.80;99.90
25504;DHT22;13410;52.114;5.718;2022-12-24T04:24:04;13.80;99.90
25504;DHT22;13410;52.114;5.718;2022-12-24T04:26:30;13.70;99.90
25504;DHT22;13410;52.114;5.718;2022-12-24T04:28:55;13.60;99.90
25504;DHT22;13410;52.114;5.718;2022-12-24T04:31:21;13.90;99.90
25504;DHT22;13410;52.114;5.718;2022-12-24T04:33:47;13.80;99.90
25504;DHT22;13410;52.114;5.718;2022-12-24T04:36:14;13.70;99.90
25504;DHT22;13410;52.114;5.718;2022-12-24T04:38:41;13.70;99.90
25504;DHT22;13410;52.114;5.718;2022-12-24T04:41:27;13.80;99.90
25504;DHT22;13410;52.114;5.718;2022-12-24T04:43:54;13.70;99.90
25504;DHT22;13410;52.114;5.718;2022-12-24T04:46:23;13.80;99.90
25504;DHT22;13410;52.114;5.718;2022-12-24T04:48:50;13.60;99.90
25504;DHT22;13410;52.114;5.718;2022-12-24T04:51:17;13.70;99.90
25504;DHT22;13410;52.114;5.718;2022-12-24T04:53:43;13.60;99.90
25504;DHT22;13410;52.114;5.718;2022-12-24T04:56:29;13.60;99.90
25504;DHT22;13410;52.114;5.718;2022-12-24T04:58:55;13.70;99.90
25504;DHT22;13410;52.114;5.718;2022-12-24T05:01:23;13.60;99.90
25504;DHT22;13410;52.114;5.718;2022-12-24T05:03:49;13.60;99.90
25504;DHT22;13410;52.114;5.718;2022-12-24T05:06:18;13.40;99.90
25504;DHT22;13410;52.114;5.718;2022-12-24T05:08:44;13.50;99.90
25504;DHT22;13410;52.114;5.718;2022-12-24T05:11:11;13.60;99.90
25504;DHT22;13410;52.114;5.718;2022-12-24T05:13:39;13.60;99.90
25504;DHT22;13410;52.114;5.718;2022-12-24T05:16:06;13.60;99.90
25504;DHT22;13410;52.114;5.718;2022-12-24T05:18:31;13.70;99.90
25504;DHT22;13410;52.114;5.718;2022-12-24T05:20:57;13.50;99.90
25504;DHT22;13410;52.114;5.718;2022-12-24T05:23:24;13.60;99.90
25504;DHT22;13410;52.114;5.718;2022-12-24T05:26:18;13.50;99.90
25504;DHT22;13410;52.114;5.718;2022-12-24T05:28:53;13.60;99.90
25504;DHT22;13410;52.114;5.718;2022-12-24T05:31:19;13.60;99.90
25504;DHT22;13410;52.114;5.718;2022-12-24T05:33:46;13.70;99.90
25504;DHT22;13410;52.114;5.718;2022-12-24T05:36:12;13.80;99.90
25504;DHT22;13410;52.114;5.718;2022-12-24T05:38:37;13.70;99.90
25504;DHT22;13410;52.114;5.718;2022-12-24T05:41:03;13.80;99.90
25504;DHT22;13410;52.114;5.718;2022-12-24T05:43:29;13.80;99.90
25504;DHT22;13410;52.114;5.718;2022-12-24T05:46:02;13.80;99.90
25504;DHT22;13410;52.114;5.718;2022-12-24T05:48:28;14.00;99.90
25504;DHT22;13410;52.114;5.718;2022-12-24T05:50:55;14.00;99.90
25504;DHT22;13410;52.114;5.718;2022-12-24T05:53:21;14.10;99.90
25504;DHT22;13410;52.114;5.718;2022-12-24T05:55:47;14.00;99.90
25504;DHT22;13410;52.114;5.718;2022-12-24T05:58:13;14.00;99.90
25504;DHT22;13410;52.114;5.718;2022-12-24T06:00:38;14.10;99.90
25504;DHT22;13410;52.114;5.718;2022-12-24T06:03:04;14.00;99.90
25504;DHT22;13410;52.114;5.718;2022-12-24T06:05:30;14.00;99.90
25504;DHT22;13410;52.114;5.718;2022-12-24T06:07:56;14.10;99.90
25504;DHT22;13410;52.114;5.718;2022-12-24T06:10:21;14.20;99.90
25504;DHT22;13410;52.114;5.718;2022-12-24T06:12:47;14.20;99.90
25504;DHT22;13410;52.114;5.718;2022-12-24T06:15:12;14.10;99.90
25504;DHT22;13410;52.114;5.718;2022-12-24T06:17:38;13.90;99.90
25504;DHT22;13410;52.114;5.718;2022-12-24T06:20:04;14.00;99.90
25504;DHT22;13410;52.114;5.718;2022-12-24T06:22:30;13.90;99.90
25504;DHT22;13410;52.114;5.718;2022-12-24T06:24:55;14.00;99.90
25504;DHT22;13410;52.114;5.718;2022-12-24T06:27:21;13.90;99.90
25504;DHT22;13410;52.114;5.718;2022-12-24T06:29:46;14.00;99.90
25504;DHT22;13410;52.114;5.718;2022-12-24T06:32:12;14.20;99.90
25504;DHT22;13410;52.114;5.718;2022-12-24T06:34:37;14.20;99.90
25504;DHT22;13410;52.114;5.718;2022-12-24T06:37:03;14.00;99.90
25504;DHT22;13410;52.114;5.718;2022-12-24T06:39:29;14.10;99.90
25504;DHT22;13410;52.114;5.718;2022-12-24T06:41:54;14.00;99.90
25504;DHT22;13410;52.114;5.718;2022-12-24T06:44:20;13.90;99.90
25504;DHT22;13410;52.114;5.718;2022-12-24T06:46:45;14.10;99.90
25504;DHT22;13410;52.114;5.718;2022-12-24T06:49:11;14.30;99.90
25504;DHT22;13410;52.114;5.718;2022-12-24T06:51:36;14.30;99.90
25504;DHT22;13410;52.114;5.718;2022-12-24T06:54:02;14.30;99.90
25504;DHT22;13410;52.114;5.718;2022-12-24T06:56:28;14.20;99.90
25504;DHT22;13410;52.114;5.718;2022-12-24T06:58:53;14.20;99.90
25504;DHT22;13410;52.114;5.718;2022-12-24T07:01:19;14.30;99.90
25504;DHT22;13410;52.114;5.718;2022-12-24T07:03:45;14.50;99.90
25504;DHT22;13410;52.114;5.718;2022-12-24T07:06:26;14.40;99.90
25504;DHT22;13410;52.114;5.718;2022-12-24T07:08:52;14.20;99.90
25504;DHT22;13410;52.114;5.718;2022-12-24T07:11:19;14.30;99.90
25504;DHT22;13410;52.114;5.718;2022-12-24T07:13:45;14.40;99.90
25504;DHT22;13410;52.114;5.718;2022-12-24T07:16:11;14.40;99.90
25504;DHT22;13410;52.114;5.718;2022-12-24T07:18:37;14.40;99.90
25504;DHT22;13410;52.114;5.718;2022-12-24T07:21:05;14.30;99.90
25504;DHT22;13410;52.114;5.718;2022-12-24T07:23:31;14.30;99.90
25504;DHT22;13410;52.114;5.718;2022-12-24T07:26:01;14.50;99.90
25504;DHT22;13410;52.114;5.718;2022-12-24T07:28:28;14.40;99.90
25504;DHT22;13410;52.114;5.718;2022-12-24T07:30:57;14.40;99.90
25504;DHT22;13410;52.114;5.718;2022-12-24T07:33:23;14.40;99.90
25504;DHT22;13410;52.114;5.718;2022-12-24T07:36:06;14.30;99.90
25504;DHT22;13410;52.114;5.718;2022-12-24T07:38:32;14.30;99.90
25504;DHT22;13410;52.114;5.718;2022-12-24T07:40:58;14.40;99.90
25504;DHT22;13410;52.114;5.718;2022-12-24T07:43:25;14.40;99.90
25504;DHT22;13410;52.114;5.718;2022-12-24T07:45:56;14.40;99.90
25504;DHT22;13410;52.114;5.718;2022-12-24T07:48:23;14.30;99.90
25504;DHT22;13410;52.114;5.718;2022-12-24T07:50:49;14.20;99.90
25504;DHT22;13410;52.114;5.718;2022-12-24T07:53:15;14.10;99.90
25504;DHT22;13410;52.114;5.718;2022-12-24T07:55:40;14.00;99.90
25504;DHT22;13410;52.114;5.718;2022-12-24T07:58:06;14.10;99.90
25504;DHT22;13410;52.114;5.718;2022-12-24T08:00:31;14.20;99.90
25504;DHT22;13410;52.114;5.718;2022-12-24T08:02:57;14.10;99.90
25504;DHT22;13410;52.114;5.718;2022-12-24T08:05:25;14.10;99.90
25504;DHT22;13410;52.114;5.718;2022-12-24T08:07:51;14.10;99.90
25504;DHT22;13410;52.114;5.718;2022-12-24T08:10:17;14.10;99.90
25504;DHT22;13410;52.114;5.718;2022-12-24T08:12:42;14.20;99.90
25504;DHT22;13410;52.114;5.718;2022-12-24T08:15:10;14.30;99.90
25504;DHT22;13410;52.114;5.718;2022-12-24T08:17:36;14.20;99.90
25504;DHT22;13410;52.114;5.718;2022-12-24T08:20:02;14.30;99.90
25504;DHT22;13410;52.114;5.718;2022-12-24T08:22:28;14.40;99.90
25504;DHT22;13410;52.114;5.718;2022-12-24T08:24:53;14.50;99.90
25504;DHT22;13410;52.114;5.718;2022-12-24T08:27:19;14.50;99.90
25504;DHT22;13410;52.114;5.718;2022-12-24T08:29:44;14.50;99.90
25504;DHT22;13410;52.114;5.718;2022-12-24T08:32:10;14.40;99.90
25504;DHT22;13410;52.114;5.718;2022-12-24T08:34:36;14.40;99.90
25504;DHT22;13410;52.114;5.718;2022-12-24T08:37:01;14.50;99.90
25504;DHT22;13410;52.114;5.718;2022-12-24T08:39:27;14.50;99.90
25504;DHT22;13410;52.114;5.718;2022-12-24T08:41:52;14.40;99.90
25504;DHT22;13410;52.114;5.718;2022-12-24T08:44:18;14.30;99.90
25504;DHT22;13410;52.114;5.718;2022-12-24T08:46:43;14.20;99.90
25504;DHT22;13410;52.114;5.718;2022-12-24T08:49:09;14.40;99.90
25504;DHT22;13410;52.114;5.718;2022-12-24T08:51:34;14.40;99.90
25504;DHT22;13410;52.114;5.718;2022-12-24T08:54:00;14.40;99.90
25504;DHT22;13410;52.114;5.718;2022-12-24T08:56:25;14.30;99.90
25504;DHT22;13410;52.114;5.718;2022-12-24T08:58:51;14.40;99.90
25504;DHT22;13410;52.114;5.718;2022-12-24T09:01:18;14.40;99.90
25504;DHT22;13410;52.114;5.718;2022-12-24T09:03:44;14.50;99.90
25504;DHT22;13410;52.114;5.718;2022-12-24T09:06:10;14.70;99.90
25504;DHT22;13410;52.114;5.718;2022-12-24T09:08:36;14.80;99.90
25504;DHT22;13410;52.114;5.718;2022-12-24T09:11:06;14.70;99.90
25504;DHT22;13410;52.114;5.718;2022-12-24T09:13:32;14.80;99.90
25504;DHT22;13410;52.114;5.718;2022-12-24T09:15:58;14.70;99.90
25504;DHT22;13410;52.114;5.718;2022-12-24T09:18:24;14.70;99.90
25504;DHT22;13410;52.114;5.718;2022-12-24T09:20:50;14.70;99.90
25504;DHT22;13410;52.114;5.718;2022-12-24T09:23:15;14.80;99.90
25504;DHT22;13410;52.114;5.718;2022-12-24T09:25:42;14.80;99.90
25504;DHT22;13410;52.114;5.718;2022-12-24T09:28:08;14.90;99.90
25504;DHT22;13410;52.114;5.718;2022-12-24T09:30:35;14.90;99.90
25504;DHT22;13410;52.114;5.718;2022-12-24T09:33:01;14.70;99.90
25504;DHT22;13410;52.114;5.718;2022-12-24T09:35:27;14.80;99.90
25504;DHT22;13410;52.114;5.718;2022-12-24T09:37:52;14.80;99.90
25504;DHT22;13410;52.114;5.718;2022-12-24T09:40:34;14.70;99.90
25504;DHT22;13410;52.114;5.718;2022-12-24T09:43:10;14.90;99.90
25504;DHT22;13410;52.114;5.718;2022-12-24T09:45:40;15.00;99.90
25504;DHT22;13410;52.114;5.718;2022-12-24T09:48:15;15.00;99.90
25504;DHT22;13410;52.114;5.718;2022-12-24T09:53:22;15.20;99.90
25504;DHT22;13410;52.114;5.718;2022-12-24T09:55:52;15.00;99.90
25504;DHT22;13410;52.114;5.718;2022-12-24T09:58:33;14.90;99.90
25504;DHT22;13410;52.114;5.718;2022-12-24T10:01:00;15.10;99.90
25504;DHT22;13410;52.114;5.718;2022-12-24T10:03:25;14.90;99.90
25504;DHT22;13410;52.114;5.718;2022-12-24T10:14:21;14.70;99.90
25504;DHT22;13410;52.114;5.718;2022-12-24T10:16:55;14.80;99.90
25504;DHT22;13410;52.114;5.718;2022-12-24T10:19:44;14.80;99.90
25504;DHT22;13410;52.114;5.718;2022-12-24T10:22:29;15.00;99.90
25504;DHT22;13410;52.114;5.718;2022-12-24T10:25:19;15.00;99.90
25504;DHT22;13410;52.114;5.718;2022-12-24T10:27:57;15.10;99.90
25504;DHT22;13410;52.114;5.718;2022-12-24T10:30:24;15.00;99.90
25504;DHT22;13410;52.114;5.718;2022-12-24T10:32:52;15.20;99.90
25504;DHT22;13410;52.114;5.718;2022-12-24T10:35:33;15.10;99.90
25504;DHT22;13410;52.114;5.718;2022-12-24T10:38:01;15.10;99.90
25504;DHT22;13410;52.114;5.718;2022-12-24T10:40:37;15.00;99.90
25504;DHT22;13410;52.114;5.718;2022-12-24T10:43:19;15.10;99.90
25504;DHT22;13410;52.114;5.718;2022-12-24T10:45:47;15.30;99.90
25504;DHT22;13410;52.114;5.718;2022-12-24T10:48:42;15.50;99.90
25504;DHT22;13410;52.114;5.718;2022-12-24T10:53:53;15.50;99.90
25504;DHT22;13410;52.114;5.718;2022-12-24T10:56:20;15.70;99.90
25504;DHT22;13410;52.114;5.718;2022-12-24T10:58:53;15.60;99.90
25504;DHT22;13410;52.114;5.718;2022-12-24T11:01:42;15.70;99.90
25504;DHT22;13410;52.114;5.718;2022-12-24T11:04:18;15.70;99.90
25504;DHT22;13410;52.114;5.718;2022-12-24T11:07:15;15.70;99.90
25504;DHT22;13410;52.114;5.718;2022-12-24T11:10:13;15.70;99.90
25504;DHT22;13410;52.114;5.718;2022-12-24T11:12:46;15.60;99.90
25504;DHT22;13410;52.114;5.718;2022-12-24T11:15:19;15.70;99.90
25504;DHT22;13410;52.114;5.718;2022-12-24T11:18:04;15.80;99.90
25504;DHT22;13410;52.114;5.718;2022-12-24T11:20:32;15.80;99.90
25504;DHT22;13410;52.114;5.718;2022-12-24T11:22:59;15.60;99.90
25504;DHT22;13410;52.114;5.718;2022-12-24T11:25:28;15.60;99.90
25504;DHT22;13410;52.114;5.718;2022-12-24T11:27:57;15.50;99.90
25504;DHT22;13410;52.114;5.718;2022-12-24T11:30:34;15.60;99.90
25504;DHT22;13410;52.114;5.718;2022-12-24T11:35:28;15.70;99.90
25504;DHT22;13410;52.114;5.718;2022-12-24T11:40:35;15.40;99.90
25504;DHT22;13410;52.114;5.718;2022-12-24T11:43:03;15.50;99.90
25504;DHT22;13410;52.114;5.718;2022-12-24T11:45:31;15.50;99.90
25504;DHT22;13410;52.114;5.718;2022-12-24T11:47:59;15.50;99.90
25504;DHT22;13410;52.114;5.718;2022-12-24T11:50:30;15.40;99.90
25504;DHT22;13410;52.114;5.718;2022-12-24T11:53:06;15.50;99.90
25504;DHT22;13410;52.114;5.718;2022-12-24T12:01:20;15.50;99.90
25504;DHT22;13410;52.114;5.718;2022-12-24T12:04:06;15.60;99.90
25504;DHT22;13410;52.114;5.718;2022-12-24T12:06:49;15.70;99.90
25504;DHT22;13410;52.114;5.718;2022-12-24T12:09:32;15.60;99.90
25504;DHT22;13410;52.114;5.718;2022-12-24T12:12:04;15.50;99.90
25504;DHT22;13410;52.114;5.718;2022-12-24T12:14:56;15.40;99.90
25504;DHT22;13410;52.114;5.718;2022-12-24T12:22:34;16.00;99.90
25504;DHT22;13410;52.114;5.718;2022-12-24T12:25:06;15.90;99.90
25504;DHT22;13410;52.114;5.718;2022-12-24T12:27:48;15.90;99.90
25504;DHT22;13410;52.114;5.718;2022-12-24T12:30:16;15.90;99.90
25504;DHT22;13410;52.114;5.718;2022-12-24T12:32:51;15.80;99.90
25504;DHT22;13410;52.114;5.718;2022-12-24T12:35:33;15.90;99.90
25504;DHT22;13410;52.114;5.718;2022-12-24T12:38:12;15.80;99.90
25504;DHT22;13410;52.114;5.718;2022-12-24T12:43:36;15.60;99.90
25504;DHT22;13410;52.114;5.718;2022-12-24T12:46:38;15.50;99.90
25504;DHT22;13410;52.114;5.718;2022-12-24T12:57:49;15.40;99.90
25504;DHT22;13410;52.114;5.718;2022-12-24T13:00:17;15.50;99.90
25504;DHT22;13410;52.114;5.718;2022-12-24T13:17:18;15.30;99.90
25504;DHT22;13410;52.114;5.718;2022-12-24T13:20:11;15.30;99.90
25504;DHT22;13410;52.114;5.718;2022-12-24T13:23:00;15.30;99.90
25504;DHT22;13410;52.114;5.718;2022-12-24T13:25:35;15.20;99.90
25504;DHT22;13410;52.114;5.718;2022-12-24T13:28:31;15.20;99.90
25504;DHT22;13410;52.114;5.718;2022-12-24T13:38:39;15.20;99.90
25504;DHT22;13410;52.114;5.718;2022-12-24T13:49:35;15.40;99.90
25504;DHT22;13410;52.114;5.718;2022-12-24T13:52:28;15.30;99.90
25504;DHT22;13410;52.114;5.718;2022-12-24T13:57:51;15.10;99.90
25504;DHT22;13410;52.114;5.718;2022-12-24T14:08:14;15.00;99.90
25504;DHT22;13410;52.114;5.718;2022-12-24T14:11:15;15.10;99.90
25504;DHT22;13410;52.114;5.718;2022-12-24T14:16:22;15.50;99.90
25504;DHT22;13410;52.114;5.718;2022-12-24T14:21:53;15.50;99.90
25504;DHT22;13410;52.114;5.718;2022-12-24T14:24:22;15.60;99.90
25504;DHT22;13410;52.114;5.718;2022-12-24T14:27:19;15.80;99.90
25504;DHT22;13410;52.114;5.718;2022-12-24T14:32:34;15.70;99.90
25504;DHT22;13410;52.114;5.718;2022-12-24T14:37:43;15.70;99.90
25504;DHT22;13410;52.114;5.718;2022-12-24T14:40:24;15.80;99.90
25504;DHT22;13410;52.114;5.718;2022-12-24T14:43:01;15.70;99.90
25504;DHT22;13410;52.114;5.718;2022-12-24T14:45:49;15.80;99.90
25504;DHT22;13410;52.114;5.718;2022-12-24T14:48:21;15.60;99.90
25504;DHT22;13410;52.114;5.718;2022-12-24T14:54:41;15.60;99.90
25504;DHT22;13410;52.114;5.718;2022-12-24T14:56:34;15.50;99.90
25504;DHT22;13410;52.114;5.718;2022-12-24T14:59:02;15.40;99.90
25504;DHT22;13410;52.114;5.718;2022-12-24T15:01:38;15.40;99.90
25504;DHT22;13410;52.114;5.718;2022-12-24T15:06:42;15.30;99.90
25504;DHT22;13410;52.114;5.718;2022-12-24T15:09:23;15.20;99.90
25504;DHT22;13410;52.114;5.718;2022-12-24T15:11:51;15.20;99.90
25504;DHT22;13410;52.114;5.718;2022-12-24T15:14:18;15.20;99.90
25504;DHT22;13410;52.114;5.718;2022-12-24T15:16:55;15.30;99.90
25504;DHT22;13410;52.114;5.718;2022-12-24T15:19:26;15.10;99.90
25504;DHT22;13410;52.114;5.718;2022-12-24T15:21:53;15.00;99.90
25504;DHT22;13410;52.114;5.718;2022-12-24T15:24:27;15.10;99.90
25504;DHT22;13410;52.114;5.718;2022-12-24T15:26:54;15.20;99.90
25504;DHT22;13410;52.114;5.718;2022-12-24T15:29:31;15.10;99.90
25504;DHT22;13410;52.114;5.718;2022-12-24T15:31:59;15.00;99.90
25504;DHT22;13410;52.114;5.718;2022-12-24T15:34:36;14.90;99.90
25504;DHT22;13410;52.114;5.718;2022-12-24T15:37:05;15.00;99.90
25504;DHT22;13410;52.114;5.718;2022-12-24T15:39:32;14.90;99.90
25504;DHT22;13410;52.114;5.718;2022-12-24T15:41:58;14.90;99.90
25504;DHT22;13410;52.114;5.718;2022-12-24T15:44:56;14.90;99.90
25504;DHT22;13410;52.114;5.718;2022-12-24T15:47:37;14.70;99.90
25504;DHT22;13410;52.114;5.718;2022-12-24T15:52:45;14.70;99.90
25504;DHT22;13410;52.114;5.718;2022-12-24T15:57:58;14.60;99.90
25504;DHT22;13410;52.114;5.718;2022-12-24T16:00:26;14.50;99.90
25504;DHT22;13410;52.114;5.718;2022-12-24T16:03:18;14.50;99.90
25504;DHT22;13410;52.114;5.718;2022-12-24T16:05:45;14.50;99.90
25504;DHT22;13410;52.114;5.718;2022-12-24T16:10:42;14.40;99.90
25504;DHT22;13410;52.114;5.718;2022-12-24T16:15:45;14.40;99.90
25504;DHT22;13410;52.114;5.718;2022-12-24T16:18:17;14.40;99.90
25504;DHT22;13410;52.114;5.718;2022-12-24T16:20:50;14.40;99.90
25504;DHT22;13410;52.114;5.718;2022-12-24T16:23:18;14.40;99.90
25504;DHT22;13410;52.114;5.718;2022-12-24T16:25:44;14.30;99.90
25504;DHT22;13410;52.114;5.718;2022-12-24T16:28:11;14.30;99.90
25504;DHT22;13410;52.114;5.718;2022-12-24T16:30:37;14.20;99.90
25504;DHT22;13410;52.114;5.718;2022-12-24T16:33:03;14.20;99.90
25504;DHT22;13410;52.114;5.718;2022-12-24T16:35:30;14.10;99.90
25504;DHT22;13410;52.114;5.718;2022-12-24T16:38:01;14.00;99.90
25504;DHT22;13410;52.114;5.718;2022-12-24T16:40:28;14.00;99.90
25504;DHT22;13410;52.114;5.718;2022-12-24T16:42:55;13.90;99.90
25504;DHT22;13410;52.114;5.718;2022-12-24T16:45:39;13.80;99.90
25504;DHT22;13410;52.114;5.718;2022-12-24T16:48:06;13.80;99.90
25504;DHT22;13410;52.114;5.718;2022-12-24T16:50:32;13.70;99.90
25504;DHT22;13410;52.114;5.718;2022-12-24T16:52:58;13.60;99.90
25504;DHT22;13410;52.114;5.718;2022-12-24T16:55:23;13.60;99.90
25504;DHT22;13410;52.114;5.718;2022-12-24T16:57:49;13.60;99.90
25504;DHT22;13410;52.114;5.718;2022-12-24T17:00:17;13.60;99.90
25504;DHT22;13410;52.114;5.718;2022-12-24T17:02:44;13.60;99.90
25504;DHT22;13410;52.114;5.718;2022-12-24T17:05:10;13.60;99.90
25504;DHT22;13410;52.114;5.718;2022-12-24T17:07:36;13.60;99.90
25504;DHT22;13410;52.114;5.718;2022-12-24T17:10:02;13.60;99.90
25504;DHT22;13410;52.114;5.718;2022-12-24T17:12:28;13.50;99.90
25504;DHT22;13410;52.114;5.718;2022-12-24T17:14:53;13.50;99.90
25504;DHT22;13410;52.114;5.718;2022-12-24T17:17:27;13.50;99.90
25504;DHT22;13410;52.114;5.718;2022-12-24T17:19:54;13.50;99.90
25504;DHT22;13410;52.114;5.718;2022-12-24T17:22:20;13.30;99.90
25504;DHT22;13410;52.114;5.718;2022-12-24T17:24:46;13.20;99.90
25504;DHT22;13410;52.114;5.718;2022-12-24T17:27:12;13.20;99.90
25504;DHT22;13410;52.114;5.718;2022-12-24T17:29:37;13.20;99.90
25504;DHT22;13410;52.114;5.718;2022-12-24T17:32:03;13.10;99.90
25504;DHT22;13410;52.114;5.718;2022-12-24T17:34:29;12.90;99.90
25504;DHT22;13410;52.114;5.718;2022-12-24T17:36:55;12.80;99.90
25504;DHT22;13410;52.114;5.718;2022-12-24T17:39:20;12.90;99.90
25504;DHT22;13410;52.114;5.718;2022-12-24T17:41:46;12.90;99.90
25504;DHT22;13410;52.114;5.718;2022-12-24T17:44:13;12.90;99.90
25504;DHT22;13410;52.114;5.718;2022-12-24T17:46:39;12.80;99.90
25504;DHT22;13410;52.114;5.718;2022-12-24T17:49:05;12.70;99.90
25504;DHT22;13410;52.114;5.718;2022-12-24T17:51:31;12.70;99.90
25504;DHT22;13410;52.114;5.718;2022-12-24T17:53:58;12.60;99.90
25504;DHT22;13410;52.114;5.718;2022-12-24T17:56:24;12.70;99.90
25504;DHT22;13410;52.114;5.718;2022-12-24T17:58:49;12.60;99.90
25504;DHT22;13410;52.114;5.718;2022-12-24T18:01:18;12.60;99.90